sensor_id;sensor_type;location;lat;lon;timestamp;P1;durP1;ratioP1;P2;durP2;ratioP2
26530;SDS011;14201;43.188;24.160;2022-12-18T00:01:24;17.25;;;12.10;;
26530;SDS011;14201;43.188;24.160;2022-12-18T00:03:53;21.17;;;13.38;;
26530;SDS011;14201;43.188;24.160;2022-12-18T00:06:20;18.88;;;12.75;;
26530;SDS011;14201;43.188;24.160;2022-12-18T00:08:46;18.45;;;12.60;;
26530;SDS011;14201;43.188;24.160;2022-12-18T00:11:19;19.20;;;13.02;;
26530;SDS011;14201;43.188;24.160;2022-12-18T00:13:47;19.60;;;13.27;;
26530;SDS011;14201;43.188;24.160;2022-12-18T00:16:14;21.30;;;13.38;;
26530;SDS011;14201;43.188;24.160;2022-12-18T00:18:43;18.70;;;12.60;;
26530;SDS011;14201;43.188;24.160;2022-12-18T00:21:09;23.27;;;14.20;;
26530;SDS011;14201;43.188;24.160;2022-12-18T00:23:37;19.88;;;12.55;;
26530;SDS011;14201;43.188;24.160;2022-12-18T00:26:05;23.40;;;13.35;;
26530;SDS011;14201;43.188;24.160;2022-12-18T00:28:32;25.38;;;13.95;;
26530;SDS011;14201;43.188;24.160;2022-12-18T00:31:02;18.75;;;12.80;;
26530;SDS011;14201;43.188;24.160;2022-12-18T00:33:35;20.55;;;13.13;;
26530;SDS011;14201;43.188;24.160;2022-12-18T00:36:06;20.95;;;13.77;;
26530;SDS011;14201;43.188;24.160;2022-12-18T00:38:35;23.02;;;14.32;;
26530;SDS011;14201;43.188;24.160;2022-12-18T00:41:01;18.55;;;12.93;;
26530;SDS011;14201;43.188;24.160;2022-12-18T00:43:27;19.60;;;13.40;;
26530;SDS011;14201;43.188;24.160;2022-12-18T00:45:53;18.98;;;13.10;;
26530;SDS011;14201;43.188;24.160;2022-12-18T00:48:19;19.67;;;12.63;;
26530;SDS011;14201;43.188;24.160;2022-12-18T00:50:47;19.50;;;13.95;;
26530;SDS011;14201;43.188;24.160;2022-12-18T00:53:13;21.85;;;13.30;;
26530;SDS011;14201;43.188;24.160;2022-12-18T00:55:39;21.48;;;14.38;;
26530;SDS011;14201;43.188;24.160;2022-12-18T00:58:06;21.88;;;15.15;;
26530;SDS011;14201;43.188;24.160;2022-12-18T01:00:31;20.15;;;13.82;;
26530;SDS011;14201;43.188;24.160;2022-12-18T01:02:57;22.23;;;14.98;;
26530;SDS011;14201;43.188;24.160;2022-12-18T01:05:23;24.55;;;16.38;;
26530;SDS011;14201;43.188;24.160;2022-12-18T01:07:48;21.80;;;15.43;;
26530;SDS011;14201;43.188;24.160;2022-12-18T01:10:14;22.95;;;15.65;;
26530;SDS011;14201;43.188;24.160;2022-12-18T01:12:40;25.05;;;16.38;;
26530;SDS011;14201;43.188;24.160;2022-12-18T01:15:06;21.40;;;15.15;;
26530;SDS011;14201;43.188;24.160;2022-12-18T01:17:33;25.55;;;16.25;;
26530;SDS011;14201;43.188;24.160;2022-12-18T01:19:58;23.88;;;15.75;;
26530;SDS011;14201;43.188;24.160;2022-12-18T01:22:24;23.15;;;15.85;;
26530;SDS011;14201;43.188;24.160;2022-12-18T01:24:49;23.02;;;15.77;;
26530;SDS011;14201;43.188;24.160;2022-12-18T01:27:15;24.57;;;16.10;;
26530;SDS011;14201;43.188;24.160;2022-12-18T01:29:41;25.27;;;16.48;;
26530;SDS011;14201;43.188;24.160;2022-12-18T01:32:07;24.38;;;16.50;;
26530;SDS011;14201;43.188;24.160;2022-12-18T01:34:33;22.10;;;15.80;;
26530;SDS011;14201;43.188;24.160;2022-12-18T01:37:01;25.97;;;17.23;;
26530;SDS011;14201;43.188;24.160;2022-12-18T01:39:28;23.90;;;16.50;;
26530;SDS011;14201;43.188;24.160;2022-12-18T01:41:54;24.40;;;16.50;;
26530;SDS011;14201;43.188;24.160;2022-12-18T02:44:11;21.10;;;14.68;;
26530;SDS011;14201;43.188;24.160;2022-12-18T02:46:39;21.40;;;14.15;;
26530;SDS011;14201;43.188;24.160;2022-12-18T02:52:02;20.33;;;14.45;;
26530;SDS011;14201;43.188;24.160;2022-12-18T02:54:55;25.02;;;15.75;;
26530;SDS011;14201;43.188;24.160;2022-12-18T02:57:45;20.63;;;15.30;;
26530;SDS011;14201;43.188;24.160;2022-12-18T03:00:27;22.27;;;16.23;;
26530;SDS011;14201;43.188;24.160;2022-12-18T03:05:41;22.45;;;16.00;;
26530;SDS011;14201;43.188;24.160;2022-12-18T03:08:18;25.27;;;16.52;;
26530;SDS011;14201;43.188;24.160;2022-12-18T03:10:56;24.55;;;17.27;;
26530;SDS011;14201;43.188;24.160;2022-12-18T03:13:27;25.00;;;18.15;;
26530;SDS011;14201;43.188;24.160;2022-12-18T03:15:57;26.15;;;18.23;;
26530;SDS011;14201;43.188;24.160;2022-12-18T03:19:08;29.33;;;18.67;;
26530;SDS011;14201;43.188;24.160;2022-12-18T03:21:21;30.02;;;19.15;;
26530;SDS011;14201;43.188;24.160;2022-12-18T03:23:53;27.63;;;18.30;;
26530;SDS011;14201;43.188;24.160;2022-12-18T03:26:22;28.63;;;19.10;;
26530;SDS011;14201;43.188;24.160;2022-12-18T03:28:54;20.95;;;13.93;;
26530;SDS011;14201;43.188;24.160;2022-12-18T03:31:24;26.25;;;18.58;;
26530;SDS011;14201;43.188;24.160;2022-12-18T03:33:54;27.52;;;18.70;;
26530;SDS011;14201;43.188;24.160;2022-12-18T03:36:22;23.05;;;14.65;;
26530;SDS011;14201;43.188;24.160;2022-12-18T03:38:48;29.67;;;19.33;;
26530;SDS011;14201;43.188;24.160;2022-12-18T03:49:11;29.63;;;18.77;;
26530;SDS011;14201;43.188;24.160;2022-12-18T03:52:17;27.25;;;18.67;;
26530;SDS011;14201;43.188;24.160;2022-12-18T03:54:38;27.77;;;19.05;;
26530;SDS011;14201;43.188;24.160;2022-12-18T03:57:07;27.55;;;18.05;;
26530;SDS011;14201;43.188;24.160;2022-12-18T03:59:38;27.48;;;18.50;;
26530;SDS011;14201;43.188;24.160;2022-12-18T04:02:06;29.38;;;18.55;;
26530;SDS011;14201;43.188;24.160;2022-12-18T04:04:34;26.45;;;17.17;;
26530;SDS011;14201;43.188;24.160;2022-12-18T04:07:03;27.00;;;17.65;;
26530;SDS011;14201;43.188;24.160;2022-12-18T04:09:30;25.30;;;17.27;;
26530;SDS011;14201;43.188;24.160;2022-12-18T04:11:57;26.00;;;16.92;;
26530;SDS011;14201;43.188;24.160;2022-12-18T04:14:22;29.88;;;16.77;;
26530;SDS011;14201;43.188;24.160;2022-12-18T04:16:48;24.70;;;16.40;;
26530;SDS011;14201;43.188;24.160;2022-12-18T04:19:13;25.98;;;17.40;;
26530;SDS011;14201;43.188;24.160;2022-12-18T04:21:39;28.05;;;17.05;;
26530;SDS011;14201;43.188;24.160;2022-12-18T04:24:05;27.45;;;17.23;;
26530;SDS011;14201;43.188;24.160;2022-12-18T04:26:30;35.88;;;17.75;;
26530;SDS011;14201;43.188;24.160;2022-12-18T04:28:56;27.10;;;16.75;;
26530;SDS011;14201;43.188;24.160;2022-12-18T04:31:21;27.52;;;16.83;;
26530;SDS011;14201;43.188;24.160;2022-12-18T04:33:47;24.70;;;16.92;;
26530;SDS011;14201;43.188;24.160;2022-12-18T04:36:12;27.77;;;17.35;;
26530;SDS011;14201;43.188;24.160;2022-12-18T04:38:38;27.15;;;16.92;;
26530;SDS011;14201;43.188;24.160;2022-12-18T04:41:04;26.48;;;16.92;;
26530;SDS011;14201;43.188;24.160;2022-12-18T04:43:29;24.77;;;16.55;;
26530;SDS011;14201;43.188;24.160;2022-12-18T04:46:04;26.70;;;15.68;;
26530;SDS011;14201;43.188;24.160;2022-12-18T04:48:31;27.35;;;16.98;;
26530;SDS011;14201;43.188;24.160;2022-12-18T04:50:57;28.30;;;17.02;;
26530;SDS011;14201;43.188;24.160;2022-12-18T04:53:22;26.10;;;17.48;;
26530;SDS011;14201;43.188;24.160;2022-12-18T04:55:48;28.20;;;17.20;;
26530;SDS011;14201;43.188;24.160;2022-12-18T05:12:46;27.70;;;17.30;;
26530;SDS011;14201;43.188;24.160;2022-12-18T05:15:26;26.33;;;17.30;;
26530;SDS011;14201;43.188;24.160;2022-12-18T05:17:55;26.35;;;17.17;;
26530;SDS011;14201;43.188;24.160;2022-12-18T05:20:22;27.95;;;17.33;;
26530;SDS011;14201;43.188;24.160;2022-12-18T05:22:47;24.38;;;16.45;;
26530;SDS011;14201;43.188;24.160;2022-12-18T05:25:13;25.45;;;16.92;;
26530;SDS011;14201;43.188;24.160;2022-12-18T05:27:39;27.23;;;17.10;;
26530;SDS011;14201;43.188;24.160;2022-12-18T05:30:04;26.92;;;16.55;;
26530;SDS011;14201;43.188;24.160;2022-12-18T05:32:30;28.77;;;18.20;;
26530;SDS011;14201;43.188;24.160;2022-12-18T05:34:56;30.67;;;18.88;;
26530;SDS011;14201;43.188;24.160;2022-12-18T05:37:22;32.30;;;20.33;;
26530;SDS011;14201;43.188;24.160;2022-12-18T05:39:48;30.92;;;20.23;;
26530;SDS011;14201;43.188;24.160;2022-12-18T05:42:13;30.08;;;20.48;;
26530;SDS011;14201;43.188;24.160;2022-12-18T05:44:39;32.53;;;22.02;;
26530;SDS011;14201;43.188;24.160;2022-12-18T05:47:05;32.83;;;22.67;;
26530;SDS011;14201;43.188;24.160;2022-12-18T05:49:31;35.10;;;22.77;;
26530;SDS011;14201;43.188;24.160;2022-12-18T05:51:56;35.22;;;23.75;;
26530;SDS011;14201;43.188;24.160;2022-12-18T05:54:22;35.42;;;24.83;;
26530;SDS011;14201;43.188;24.160;2022-12-18T05:56:47;33.88;;;23.88;;
26530;SDS011;14201;43.188;24.160;2022-12-18T05:59:13;38.30;;;24.17;;
26530;SDS011;14201;43.188;24.160;2022-12-18T06:01:38;36.03;;;24.38;;
26530;SDS011;14201;43.188;24.160;2022-12-18T06:04:04;35.50;;;24.25;;
26530;SDS011;14201;43.188;24.160;2022-12-18T06:06:29;34.95;;;23.20;;
26530;SDS011;14201;43.188;24.160;2022-12-18T06:08:55;38.20;;;24.90;;
26530;SDS011;14201;43.188;24.160;2022-12-18T06:11:23;40.85;;;25.48;;
26530;SDS011;14201;43.188;24.160;2022-12-18T06:13:51;37.22;;;24.98;;
26530;SDS011;14201;43.188;24.160;2022-12-18T06:16:20;37.70;;;24.98;;
26530;SDS011;14201;43.188;24.160;2022-12-18T06:18:46;31.73;;;23.17;;
26530;SDS011;14201;43.188;24.160;2022-12-18T06:21:12;33.33;;;22.17;;
26530;SDS011;14201;43.188;24.160;2022-12-18T06:23:37;33.58;;;23.40;;
26530;SDS011;14201;43.188;24.160;2022-12-18T06:26:10;28.45;;;20.40;;
26530;SDS011;14201;43.188;24.160;2022-12-18T06:28:37;28.58;;;19.45;;
26530;SDS011;14201;43.188;24.160;2022-12-18T06:31:03;29.98;;;19.73;;
26530;SDS011;14201;43.188;24.160;2022-12-18T06:33:30;33.75;;;19.63;;
26530;SDS011;14201;43.188;24.160;2022-12-18T06:35:59;28.48;;;19.48;;
26530;SDS011;14201;43.188;24.160;2022-12-18T06:38:27;28.40;;;18.13;;
26530;SDS011;14201;43.188;24.160;2022-12-18T06:40:53;25.80;;;18.58;;
26530;SDS011;14201;43.188;24.160;2022-12-18T06:43:18;27.05;;;18.45;;
26530;SDS011;14201;43.188;24.160;2022-12-18T06:45:44;25.75;;;18.02;;
26530;SDS011;14201;43.188;24.160;2022-12-18T06:48:09;26.45;;;17.33;;
26530;SDS011;14201;43.188;24.160;2022-12-18T06:50:35;29.40;;;18.88;;
26530;SDS011;14201;43.188;24.160;2022-12-18T06:53:00;26.35;;;17.40;;
26530;SDS011;14201;43.188;24.160;2022-12-18T06:55:26;26.77;;;17.33;;
26530;SDS011;14201;43.188;24.160;2022-12-18T06:57:51;26.98;;;17.30;;
26530;SDS011;14201;43.188;24.160;2022-12-18T07:00:17;26.85;;;17.55;;
26530;SDS011;14201;43.188;24.160;2022-12-18T07:02:43;26.88;;;17.13;;
26530;SDS011;14201;43.188;24.160;2022-12-18T07:05:08;26.08;;;17.88;;
26530;SDS011;14201;43.188;24.160;2022-12-18T07:07:34;24.15;;;16.75;;
26530;SDS011;14201;43.188;24.160;2022-12-18T07:10:00;23.45;;;16.38;;
26530;SDS011;14201;43.188;24.160;2022-12-18T07:12:28;24.02;;;16.48;;
26530;SDS011;14201;43.188;24.160;2022-12-18T07:14:53;25.80;;;16.35;;
26530;SDS011;14201;43.188;24.160;2022-12-18T07:17:19;24.70;;;16.45;;
26530;SDS011;14201;43.188;24.160;2022-12-18T07:19:44;23.88;;;16.75;;
26530;SDS011;14201;43.188;24.160;2022-12-18T07:22:10;28.70;;;17.80;;
26530;SDS011;14201;43.188;24.160;2022-12-18T07:24:36;24.98;;;17.27;;
26530;SDS011;14201;43.188;24.160;2022-12-18T07:27:01;24.02;;;16.75;;
26530;SDS011;14201;43.188;24.160;2022-12-18T07:29:27;27.50;;;17.65;;
26530;SDS011;14201;43.188;24.160;2022-12-18T07:31:52;24.90;;;17.25;;
26530;SDS011;14201;43.188;24.160;2022-12-18T07:34:18;23.98;;;16.83;;
26530;SDS011;14201;43.188;24.160;2022-12-18T07:36:43;26.90;;;17.67;;
26530;SDS011;14201;43.188;24.160;2022-12-18T07:39:10;23.90;;;16.27;;
26530;SDS011;14201;43.188;24.160;2022-12-18T07:41:36;24.95;;;17.20;;
26530;SDS011;14201;43.188;24.160;2022-12-18T07:44:01;24.50;;;15.65;;
26530;SDS011;14201;43.188;24.160;2022-12-18T07:46:27;26.15;;;16.48;;
26530;SDS011;14201;43.188;24.160;2022-12-18T07:48:52;24.25;;;16.77;;
26530;SDS011;14201;43.188;24.160;2022-12-18T07:51:18;22.98;;;16.48;;
26530;SDS011;14201;43.188;24.160;2022-12-18T07:53:44;29.42;;;19.20;;
26530;SDS011;14201;43.188;24.160;2022-12-18T07:56:11;26.75;;;17.92;;
26530;SDS011;14201;43.188;24.160;2022-12-18T07:58:37;28.85;;;18.63;;
26530;SDS011;14201;43.188;24.160;2022-12-18T08:01:07;29.83;;;18.42;;
26530;SDS011;14201;43.188;24.160;2022-12-18T08:03:34;24.20;;;17.65;;
26530;SDS011;14201;43.188;24.160;2022-12-18T08:06:01;25.05;;;17.20;;
26530;SDS011;14201;43.188;24.160;2022-12-18T08:08:28;22.58;;;16.38;;
26530;SDS011;14201;43.188;24.160;2022-12-18T08:10:54;25.50;;;17.15;;
26530;SDS011;14201;43.188;24.160;2022-12-18T08:13:20;27.17;;;16.80;;
26530;SDS011;14201;43.188;24.160;2022-12-18T08:15:46;22.67;;;15.35;;
26530;SDS011;14201;43.188;24.160;2022-12-18T08:18:12;22.40;;;16.35;;
26530;SDS011;14201;43.188;24.160;2022-12-18T08:20:37;20.58;;;15.18;;
26530;SDS011;14201;43.188;24.160;2022-12-18T08:23:03;21.02;;;13.75;;
26530;SDS011;14201;43.188;24.160;2022-12-18T08:25:28;19.20;;;12.88;;
26530;SDS011;14201;43.188;24.160;2022-12-18T08:27:54;18.30;;;12.15;;
26530;SDS011;14201;43.188;24.160;2022-12-18T08:30:21;16.25;;;11.20;;
26530;SDS011;14201;43.188;24.160;2022-12-18T08:32:47;16.15;;;10.82;;
26530;SDS011;14201;43.188;24.160;2022-12-18T08:35:17;16.95;;;12.00;;
26530;SDS011;14201;43.188;24.160;2022-12-18T08:37:43;15.23;;;10.48;;
26530;SDS011;14201;43.188;24.160;2022-12-18T08:40:09;15.52;;;10.05;;
26530;SDS011;14201;43.188;24.160;2022-12-18T08:42:35;11.48;;;8.05;;
26530;SDS011;14201;43.188;24.160;2022-12-18T08:45:19;8.95;;;6.97;;
26530;SDS011;14201;43.188;24.160;2022-12-18T08:47:44;9.60;;;6.50;;
26530;SDS011;14201;43.188;24.160;2022-12-18T08:50:10;9.25;;;6.13;;
26530;SDS011;14201;43.188;24.160;2022-12-18T08:52:37;8.75;;;5.97;;
26530;SDS011;14201;43.188;24.160;2022-12-18T08:55:02;8.60;;;4.93;;
26530;SDS011;14201;43.188;24.160;2022-12-18T08:57:28;7.72;;;5.60;;
26530;SDS011;14201;43.188;24.160;2022-12-18T08:59:54;8.73;;;5.47;;
26530;SDS011;14201;43.188;24.160;2022-12-18T09:02:19;7.85;;;5.22;;
26530;SDS011;14201;43.188;24.160;2022-12-18T09:04:46;8.30;;;5.50;;
26530;SDS011;14201;43.188;24.160;2022-12-18T09:07:12;8.43;;;5.35;;
26530;SDS011;14201;43.188;24.160;2022-12-18T09:09:38;8.85;;;5.63;;
26530;SDS011;14201;43.188;24.160;2022-12-18T09:12:03;8.52;;;5.10;;
26530;SDS011;14201;43.188;24.160;2022-12-18T09:14:29;6.13;;;4.30;;
26530;SDS011;14201;43.188;24.160;2022-12-18T09:16:55;6.57;;;4.55;;
26530;SDS011;14201;43.188;24.160;2022-12-18T09:19:20;6.78;;;4.80;;
26530;SDS011;14201;43.188;24.160;2022-12-18T09:21:46;6.15;;;4.07;;
26530;SDS011;14201;43.188;24.160;2022-12-18T09:24:12;7.00;;;4.50;;
26530;SDS011;14201;43.188;24.160;2022-12-18T09:26:38;7.55;;;4.57;;
26530;SDS011;14201;43.188;24.160;2022-12-18T09:29:04;6.78;;;4.60;;
26530;SDS011;14201;43.188;24.160;2022-12-18T09:31:32;7.03;;;4.35;;
26530;SDS011;14201;43.188;24.160;2022-12-18T09:33:58;7.03;;;4.50;;
26530;SDS011;14201;43.188;24.160;2022-12-18T09:36:23;6.05;;;4.45;;
26530;SDS011;14201;43.188;24.160;2022-12-18T09:38:49;5.65;;;3.88;;
26530;SDS011;14201;43.188;24.160;2022-12-18T09:43:50;8.10;;;3.90;;
26530;SDS011;14201;43.188;24.160;2022-12-18T09:46:28;5.32;;;3.65;;
26530;SDS011;14201;43.188;24.160;2022-12-18T09:48:59;5.95;;;4.05;;
26530;SDS011;14201;43.188;24.160;2022-12-18T09:51:37;5.63;;;3.67;;
26530;SDS011;14201;43.188;24.160;2022-12-18T09:54:14;5.75;;;3.28;;
26530;SDS011;14201;43.188;24.160;2022-12-18T09:56:45;5.30;;;3.53;;
26530;SDS011;14201;43.188;24.160;2022-12-18T09:59:17;5.13;;;3.28;;
26530;SDS011;14201;43.188;24.160;2022-12-18T10:01:48;6.43;;;3.72;;
26530;SDS011;14201;43.188;24.160;2022-12-18T10:04:14;5.22;;;3.45;;
26530;SDS011;14201;43.188;24.160;2022-12-18T10:06:44;6.00;;;4.18;;
26530;SDS011;14201;43.188;24.160;2022-12-18T10:09:25;4.70;;;3.40;;
26530;SDS011;14201;43.188;24.160;2022-12-18T10:12:07;6.03;;;4.25;;
26530;SDS011;14201;43.188;24.160;2022-12-18T10:14:51;5.53;;;3.50;;
26530;SDS011;14201;43.188;24.160;2022-12-18T10:20:36;6.22;;;4.25;;
26530;SDS011;14201;43.188;24.160;2022-12-18T10:26:05;8.30;;;4.65;;
26530;SDS011;14201;43.188;24.160;2022-12-18T10:28:33;5.45;;;3.90;;
26530;SDS011;14201;43.188;24.160;2022-12-18T10:31:01;6.75;;;4.68;;
26530;SDS011;14201;43.188;24.160;2022-12-18T10:33:30;7.35;;;4.32;;
26530;SDS011;14201;43.188;24.160;2022-12-18T10:35:57;8.15;;;5.13;;
26530;SDS011;14201;43.188;24.160;2022-12-18T10:38:31;6.32;;;4.10;;
26530;SDS011;14201;43.188;24.160;2022-12-18T10:41:01;6.45;;;4.53;;
26530;SDS011;14201;43.188;24.160;2022-12-18T10:46:15;6.03;;;4.03;;
26530;SDS011;14201;43.188;24.160;2022-12-18T10:51:46;6.85;;;4.82;;
26530;SDS011;14201;43.188;24.160;2022-12-18T10:54:17;8.25;;;5.15;;
26530;SDS011;14201;43.188;24.160;2022-12-18T10:56:46;6.32;;;4.38;;
26530;SDS011;14201;43.188;24.160;2022-12-18T10:59:15;7.25;;;4.80;;
26530;SDS011;14201;43.188;24.160;2022-12-18T11:01:49;7.03;;;4.60;;
26530;SDS011;14201;43.188;24.160;2022-12-18T11:04:22;7.82;;;4.40;;
26530;SDS011;14201;43.188;24.160;2022-12-18T11:06:59;8.48;;;4.57;;
26530;SDS011;14201;43.188;24.160;2022-12-18T11:09:31;5.65;;;4.40;;
26530;SDS011;14201;43.188;24.160;2022-12-18T11:14:42;6.75;;;4.80;;
26530;SDS011;14201;43.188;24.160;2022-12-18T11:19:52;7.00;;;5.10;;
26530;SDS011;14201;43.188;24.160;2022-12-18T11:22:32;7.75;;;4.97;;
26530;SDS011;14201;43.188;24.160;2022-12-18T11:25:01;8.27;;;4.75;;
26530;SDS011;14201;43.188;24.160;2022-12-18T11:27:35;7.32;;;4.55;;
26530;SDS011;14201;43.188;24.160;2022-12-18T11:30:08;8.82;;;4.47;;
26530;SDS011;14201;43.188;24.160;2022-12-18T11:32:40;7.18;;;4.93;;
26530;SDS011;14201;43.188;24.160;2022-12-18T11:38:34;7.65;;;5.00;;
26530;SDS011;14201;43.188;24.160;2022-12-18T11:44:27;9.70;;;4.75;;
26530;SDS011;14201;43.188;24.160;2022-12-18T11:47:44;6.53;;;4.35;;
26530;SDS011;14201;43.188;24.160;2022-12-18T11:50:10;9.73;;;5.18;;
26530;SDS011;14201;43.188;24.160;2022-12-18T11:52:41;7.72;;;4.80;;
26530;SDS011;14201;43.188;24.160;2022-12-18T11:55:27;7.93;;;4.70;;
26530;SDS011;14201;43.188;24.160;2022-12-18T11:58:27;7.95;;;4.57;;
26530;SDS011;14201;43.188;24.160;2022-12-18T12:09:37;7.05;;;4.82;;
26530;SDS011;14201;43.188;24.160;2022-12-18T12:12:27;9.10;;;6.03;;
26530;SDS011;14201;43.188;24.160;2022-12-18T12:26:10;9.05;;;5.65;;
26530;SDS011;14201;43.188;24.160;2022-12-18T12:33:53;8.63;;;5.95;;
26530;SDS011;14201;43.188;24.160;2022-12-18T12:39:33;10.88;;;6.25;;
26530;SDS011;14201;43.188;24.160;2022-12-18T12:42:02;9.45;;;6.60;;
26530;SDS011;14201;43.188;24.160;2022-12-18T12:44:54;11.32;;;6.60;;
26530;SDS011;14201;43.188;24.160;2022-12-18T12:49:58;9.18;;;6.07;;
26530;SDS011;14201;43.188;24.160;2022-12-18T12:54:57;8.65;;;5.95;;
26530;SDS011;14201;43.188;24.160;2022-12-18T12:57:30;8.73;;;6.43;;
26530;SDS011;14201;43.188;24.160;2022-12-18T13:02:32;10.20;;;6.70;;
26530;SDS011;14201;43.188;24.160;2022-12-18T13:07:59;10.70;;;7.38;;
26530;SDS011;14201;43.188;24.160;2022-12-18T13:10:33;13.85;;;8.18;;
26530;SDS011;14201;43.188;24.160;2022-12-18T13:23:36;9.85;;;6.40;;
26530;SDS011;14201;43.188;24.160;2022-12-18T13:31:01;10.88;;;6.70;;
26530;SDS011;14201;43.188;24.160;2022-12-18T13:36:00;12.27;;;7.45;;
26530;SDS011;14201;43.188;24.160;2022-12-18T13:38:35;11.57;;;7.53;;
26530;SDS011;14201;43.188;24.160;2022-12-18T13:41:03;9.85;;;6.15;;
26530;SDS011;14201;43.188;24.160;2022-12-18T13:43:47;10.82;;;5.95;;
26530;SDS011;14201;43.188;24.160;2022-12-18T13:46:21;11.98;;;6.40;;
26530;SDS011;14201;43.188;24.160;2022-12-18T13:51:26;10.57;;;6.97;;
26530;SDS011;14201;43.188;24.160;2022-12-18T13:54:06;9.23;;;6.15;;
26530;SDS011;14201;43.188;24.160;2022-12-18T13:56:42;12.80;;;6.97;;
26530;SDS011;14201;43.188;24.160;2022-12-18T14:01:54;11.32;;;7.32;;
26530;SDS011;14201;43.188;24.160;2022-12-18T14:06:58;11.32;;;7.32;;
26530;SDS011;14201;43.188;24.160;2022-12-18T14:09:30;11.43;;;7.30;;
26530;SDS011;14201;43.188;24.160;2022-12-18T14:11:59;11.10;;;7.40;;
26530;SDS011;14201;43.188;24.160;2022-12-18T14:14:45;11.57;;;6.90;;
26530;SDS011;14201;43.188;24.160;2022-12-18T14:17:13;11.45;;;7.20;;
26530;SDS011;14201;43.188;24.160;2022-12-18T14:19:46;10.80;;;7.43;;
26530;SDS011;14201;43.188;24.160;2022-12-18T14:22:21;10.82;;;7.25;;
26530;SDS011;14201;43.188;24.160;2022-12-18T14:27:41;11.63;;;7.15;;
26530;SDS011;14201;43.188;24.160;2022-12-18T14:30:44;13.98;;;8.10;;
26530;SDS011;14201;43.188;24.160;2022-12-18T14:35:43;17.67;;;10.25;;
26530;SDS011;14201;43.188;24.160;2022-12-18T14:41:02;11.55;;;7.60;;
26530;SDS011;14201;43.188;24.160;2022-12-18T14:43:32;14.40;;;7.60;;
26530;SDS011;14201;43.188;24.160;2022-12-18T14:45:59;11.30;;;7.15;;
26530;SDS011;14201;43.188;24.160;2022-12-18T14:48:35;12.23;;;6.90;;
26530;SDS011;14201;43.188;24.160;2022-12-18T14:53:39;10.90;;;6.60;;
26530;SDS011;14201;43.188;24.160;2022-12-18T14:56:14;12.48;;;7.65;;
26530;SDS011;14201;43.188;24.160;2022-12-18T14:58:50;12.05;;;7.65;;
26530;SDS011;14201;43.188;24.160;2022-12-18T15:01:23;12.80;;;7.63;;
26530;SDS011;14201;43.188;24.160;2022-12-18T15:03:51;11.85;;;7.88;;
26530;SDS011;14201;43.188;24.160;2022-12-18T15:06:31;13.75;;;7.57;;
26530;SDS011;14201;43.188;24.160;2022-12-18T15:11:47;12.38;;;7.80;;
26530;SDS011;14201;43.188;24.160;2022-12-18T15:17:14;11.90;;;8.27;;
26530;SDS011;14201;43.188;24.160;2022-12-18T15:19:47;14.85;;;8.82;;
26530;SDS011;14201;43.188;24.160;2022-12-18T15:24:43;13.45;;;8.00;;
26530;SDS011;14201;43.188;24.160;2022-12-18T15:32:26;13.30;;;8.57;;
26530;SDS011;14201;43.188;24.160;2022-12-18T15:35:01;15.43;;;9.60;;
26530;SDS011;14201;43.188;24.160;2022-12-18T15:37:28;14.25;;;8.73;;
26530;SDS011;14201;43.188;24.160;2022-12-18T15:39:53;14.80;;;9.10;;
26530;SDS011;14201;43.188;24.160;2022-12-18T15:42:19;13.10;;;8.90;;
26530;SDS011;14201;43.188;24.160;2022-12-18T15:45:03;13.13;;;8.80;;
26530;SDS011;14201;43.188;24.160;2022-12-18T15:47:29;14.80;;;9.00;;
26530;SDS011;14201;43.188;24.160;2022-12-18T15:49:55;15.48;;;9.15;;
26530;SDS011;14201;43.188;24.160;2022-12-18T15:52:21;15.27;;;9.40;;
26530;SDS011;14201;43.188;24.160;2022-12-18T15:54:51;17.00;;;10.15;;
26530;SDS011;14201;43.188;24.160;2022-12-18T15:57:34;17.70;;;9.50;;
26530;SDS011;14201;43.188;24.160;2022-12-18T16:00:01;14.15;;;8.98;;
26530;SDS011;14201;43.188;24.160;2022-12-18T16:02:27;16.58;;;10.23;;
26530;SDS011;14201;43.188;24.160;2022-12-18T16:04:53;18.00;;;9.88;;
26530;SDS011;14201;43.188;24.160;2022-12-18T16:07:19;15.95;;;9.82;;
26530;SDS011;14201;43.188;24.160;2022-12-18T16:09:45;17.20;;;10.18;;
26530;SDS011;14201;43.188;24.160;2022-12-18T16:12:15;15.52;;;10.13;;
26530;SDS011;14201;43.188;24.160;2022-12-18T16:14:48;18.63;;;11.98;;
26530;SDS011;14201;43.188;24.160;2022-12-18T16:17:14;19.98;;;12.27;;
26530;SDS011;14201;43.188;24.160;2022-12-18T16:19:40;19.40;;;12.32;;
26530;SDS011;14201;43.188;24.160;2022-12-18T16:22:05;18.85;;;12.35;;
26530;SDS011;14201;43.188;24.160;2022-12-18T16:24:40;19.00;;;12.38;;
26530;SDS011;14201;43.188;24.160;2022-12-18T16:27:07;20.40;;;12.75;;
26530;SDS011;14201;43.188;24.160;2022-12-18T16:29:33;23.88;;;13.60;;
26530;SDS011;14201;43.188;24.160;2022-12-18T16:31:59;20.40;;;12.90;;
26530;SDS011;14201;43.188;24.160;2022-12-18T16:36:57;22.45;;;13.90;;
26530;SDS011;14201;43.188;24.160;2022-12-18T16:39:25;24.45;;;14.45;;
26530;SDS011;14201;43.188;24.160;2022-12-18T16:41:51;24.48;;;15.02;;
26530;SDS011;14201;43.188;24.160;2022-12-18T16:44:17;23.77;;;14.75;;
26530;SDS011;14201;43.188;24.160;2022-12-18T16:46:44;26.55;;;15.52;;
26530;SDS011;14201;43.188;24.160;2022-12-18T16:49:14;30.73;;;17.20;;
26530;SDS011;14201;43.188;24.160;2022-12-18T16:51:41;29.25;;;17.65;;
26530;SDS011;14201;43.188;24.160;2022-12-18T16:54:07;30.08;;;18.05;;
26530;SDS011;14201;43.188;24.160;2022-12-18T16:56:32;30.85;;;18.67;;
26530;SDS011;14201;43.188;24.160;2022-12-18T16:58:59;29.73;;;17.92;;
26530;SDS011;14201;43.188;24.160;2022-12-18T17:01:26;29.20;;;18.20;;
26530;SDS011;14201;43.188;24.160;2022-12-18T17:03:59;29.77;;;18.55;;
26530;SDS011;14201;43.188;24.160;2022-12-18T17:06:28;30.48;;;17.45;;
26530;SDS011;14201;43.188;24.160;2022-12-18T17:08:55;27.85;;;18.13;;
26530;SDS011;14201;43.188;24.160;2022-12-18T17:11:22;27.77;;;16.95;;
26530;SDS011;14201;43.188;24.160;2022-12-18T17:13:49;30.02;;;18.08;;
26530;SDS011;14201;43.188;24.160;2022-12-18T17:16:16;28.08;;;16.80;;
26530;SDS011;14201;43.188;24.160;2022-12-18T17:18:42;29.98;;;17.48;;
26530;SDS011;14201;43.188;24.160;2022-12-18T17:21:08;30.58;;;17.02;;
26530;SDS011;14201;43.188;24.160;2022-12-18T17:23:35;27.13;;;16.20;;
26530;SDS011;14201;43.188;24.160;2022-12-18T17:26:02;29.85;;;17.23;;
26530;SDS011;14201;43.188;24.160;2022-12-18T17:28:31;25.05;;;15.48;;
26530;SDS011;14201;43.188;24.160;2022-12-18T17:30:58;25.55;;;15.15;;
26530;SDS011;14201;43.188;24.160;2022-12-18T17:33:23;22.42;;;14.63;;
26530;SDS011;14201;43.188;24.160;2022-12-18T17:35:49;25.02;;;15.20;;
26530;SDS011;14201;43.188;24.160;2022-12-18T17:38:15;23.85;;;14.10;;
26530;SDS011;14201;43.188;24.160;2022-12-18T17:40:41;22.13;;;14.10;;
26530;SDS011;14201;43.188;24.160;2022-12-18T17:43:07;25.42;;;15.40;;
26530;SDS011;14201;43.188;24.160;2022-12-18T17:45:34;22.50;;;14.05;;
26530;SDS011;14201;43.188;24.160;2022-12-18T17:48:04;22.15;;;13.35;;
26530;SDS011;14201;43.188;24.160;2022-12-18T17:50:32;24.27;;;14.43;;
26530;SDS011;14201;43.188;24.160;2022-12-18T17:52:58;24.08;;;14.05;;